This is the latest recevied weather packets stored in our database for station/object F4JSG-10. If no packets are shown the sender has not sent any weather packets the latest 1 day(s).
| Time | Temp. | Humidity | Pressure | Rain* | Wind** | Luminosity | Snow |
|---|---|---|---|---|---|---|---|
| 1777740627 | 29.44° C | 25% | 989.1 hPa | - | - | - | - |
| 1777739727 | 29.44° C | 23% | 989 hPa | - | - | - | - |
| 1777738826 | 30° C | 21% | 989.4 hPa | - | - | - | - |
| 1777737926 | 30.56° C | 21% | 989.7 hPa | - | - | - | - |
| 1777737026 | 30° C | 22% | 989.7 hPa | - | - | - | - |
| 1777736126 | 30.56° C | 21% | 989.7 hPa | - | - | - | - |
| 1777735226 | 31.11° C | 23% | 989.9 hPa | - | - | - | - |
| 1777734326 | 32.22° C | 21% | 990.1 hPa | - | - | - | - |
| 1777733425 | 31.67° C | 23% | 990.3 hPa | - | - | - | - |
| 1777732525 | 35.56° C | 18% | 990.4 hPa | - | - | - | - |
| 1777731625 | 33.33° C | 20% | 990.6 hPa | - | - | - | - |
| 1777730725 | 35° C | 20% | 990.8 hPa | - | - | - | - |
| 1777729825 | 33.33° C | 20% | 991.1 hPa | - | - | - | - |
| 1777728028 | 32.22° C | 23% | 991.5 hPa | - | - | - | - |
| 1777728025 | 32.22° C | 23% | 991.5 hPa | - | - | - | - |
| 1777727124 | 34.44° C | 20% | 991.7 hPa | - | - | - | - |
| 1777726224 | 32.78° C | 23% | 992 hPa | - | - | - | - |
| 1777725324 | 32.22° C | 23% | 992.1 hPa | - | - | - | - |
| 1777724424 | 31.11° C | 25% | 992.4 hPa | - | - | - | - |
| 1777723524 | 32.78° C | 25% | 992.7 hPa | - | - | - | - |
| 1777722624 | 31.67° C | 24% | 992.9 hPa | - | - | - | - |
| 1777721723 | 32.78° C | 23% | 993.1 hPa | - | - | - | - |
| 1777720823 | 31.11° C | 27% | 993.4 hPa | - | - | - | - |
| 1777719926 | 30.56° C | 26% | 993.6 hPa | - | - | - | - |
| 1777719026 | 32.78° C | 23% | 993.8 hPa | - | - | - | - |
* Rain since midnight (hover to see other rain measurements)
** Current wind speed in m/s (hover to see current wind gust speed)